createdAt,value
2018-05-11T00:00:44.319Z,71.36
2018-05-11T00:03:12.327Z,71.73
2018-05-11T00:05:40.094Z,71.32
2018-05-11T00:08:07.960Z,71.65
2018-05-11T00:10:35.722Z,71.36
2018-05-11T00:13:03.384Z,70.83
2018-05-11T00:15:31.151Z,70.41
2018-05-11T00:17:58.912Z,69.97
2018-05-11T00:20:26.673Z,69.67
2018-05-11T00:22:54.486Z,69.60
2018-05-11T00:25:22.309Z,69.63
2018-05-11T00:27:50.175Z,69.44
2018-05-11T00:30:17.885Z,69.46
2018-05-11T00:32:45.703Z,69.45
2018-05-11T00:35:13.419Z,69.28
2018-05-11T00:37:41.131Z,68.50
2018-05-11T00:40:08.872Z,68.03
2018-05-11T00:42:36.620Z,68.48
2018-05-11T00:45:04.320Z,68.62
2018-05-11T00:47:31.981Z,68.80
2018-05-11T00:49:59.697Z,68.82
2018-05-11T00:52:27.462Z,68.65
2018-05-11T00:54:55.275Z,68.67
2018-05-11T00:57:23.145Z,69.06
2018-05-11T00:59:50.910Z,69.37
2018-05-11T01:02:18.776Z,69.22
2018-05-11T01:04:46.541Z,69.26
2018-05-11T01:07:14.613Z,69.16
2018-05-11T01:09:42.479Z,69.77
2018-05-11T01:12:10.652Z,69.90
2018-05-11T01:14:38.522Z,70.11
2018-05-11T01:17:06.391Z,70.88
2018-05-11T01:19:34.341Z,71.75
2018-05-11T01:22:02.134Z,72.17
2018-05-11T01:24:30.026Z,72.44
2018-05-11T01:26:58.066Z,71.99
2018-05-11T01:29:25.885Z,72.25
2018-05-11T01:31:53.593Z,72.45
2018-05-11T01:34:21.440Z,72.44
2018-05-11T01:36:49.408Z,72.10
2018-05-11T01:39:17.190Z,72.33
2018-05-11T01:41:44.892Z,71.94
2018-05-11T01:44:12.619Z,71.71
2018-05-11T01:46:40.326Z,71.09
2018-05-11T01:49:08.352Z,71.41
2018-05-11T01:51:36.120Z,71.59
2018-05-11T01:54:03.978Z,71.32
2018-05-11T01:56:31.748Z,70.72
2018-05-11T01:58:59.466Z,70.69
2018-05-11T02:01:27.288Z,70.63
2018-05-11T02:03:55.145Z,70.38
2018-05-11T02:06:22.906Z,70.60
2018-05-11T02:08:50.569Z,70.86
2018-05-11T02:11:18.289Z,70.73
2018-05-11T02:13:46.102Z,70.74
2018-05-11T02:16:13.863Z,70.44
2018-05-11T02:18:41.756Z,70.60
2018-05-11T02:21:09.492Z,70.62
2018-05-11T02:23:38.025Z,70.55
2018-05-11T02:26:05.846Z,70.71
2018-05-11T02:28:33.607Z,70.43
2018-05-11T02:31:01.475Z,70.26
2018-05-11T02:33:29.447Z,70.27
2018-05-11T02:35:57.315Z,70.06
2018-05-11T02:38:25.280Z,69.84
2018-05-11T02:40:53.046Z,70.03
2018-05-11T02:43:20.782Z,69.92
2018-05-11T02:45:48.576Z,70.04
2018-05-11T02:48:16.369Z,69.95
2018-05-11T02:50:44.164Z,70.12
2018-05-11T02:53:11.970Z,70.09
2018-05-11T02:55:39.736Z,70.09
2018-05-11T02:58:07.601Z,70.66
2018-05-11T03:00:35.323Z,70.54
2018-05-11T03:03:03.102Z,70.33
2018-05-11T03:05:30.795Z,70.61
2018-05-11T03:07:58.662Z,70.80
2018-05-11T03:10:26.421Z,70.56
2018-05-11T03:12:54.181Z,70.58
2018-05-11T03:15:22.007Z,70.28
2018-05-11T03:17:49.722Z,70.20
2018-05-11T03:20:17.376Z,70.23
2018-05-11T03:22:45.255Z,70.38
2018-05-11T03:25:13.009Z,70.73
2018-05-11T03:27:40.670Z,70.59
2018-05-11T03:30:08.396Z,70.57
2018-05-11T03:32:36.272Z,70.69
2018-05-11T03:35:04.175Z,70.89
2018-05-11T03:37:32.041Z,71.99
2018-05-11T03:40:00.011Z,72.05
2018-05-11T03:42:27.828Z,72.19
2018-05-11T03:44:55.637Z,72.05
2018-05-11T03:47:23.512Z,72.17
2018-05-11T03:49:51.169Z,71.98
2018-05-11T03:52:18.827Z,71.89
2018-05-11T03:54:46.493Z,71.77
2018-05-11T03:57:14.326Z,71.81
2018-05-11T03:59:42.009Z,71.67
2018-05-11T04:02:21.354Z,71.55
2018-05-11T04:05:00.900Z,71.39
2018-05-11T04:07:40.538Z,71.48
2018-05-11T04:10:08.301Z,71.52
2018-05-11T04:12:36.029Z,71.52
2018-05-11T04:15:04.753Z,71.76
2018-05-11T04:17:32.459Z,71.72
2018-05-11T04:20:00.282Z,71.20
2018-05-11T04:22:28.046Z,70.98
2018-05-11T04:24:55.814Z,70.55
2018-05-11T04:27:23.523Z,70.43
2018-05-11T04:29:51.237Z,70.14
2018-05-11T04:32:18.907Z,69.64
2018-05-11T04:34:46.767Z,69.27
2018-05-11T04:37:14.546Z,68.64
2018-05-11T04:39:42.398Z,68.34
2018-05-11T04:42:10.122Z,67.43
2018-05-11T04:44:37.928Z,66.62
2018-05-11T04:47:05.757Z,66.33
2018-05-11T04:49:33.447Z,65.98
2018-05-11T04:52:01.288Z,65.50
2018-05-11T04:54:29.155Z,65.49
2018-05-11T04:56:57.159Z,65.45
2018-05-11T04:59:25.014Z,65.12
2018-05-11T05:01:53.077Z,64.71
2018-05-11T05:04:20.874Z,64.37
2018-05-11T05:06:48.589Z,64.26
2018-05-11T05:09:16.395Z,63.76
2018-05-11T05:11:44.772Z,63.87
2018-05-11T05:14:12.637Z,63.94
2018-05-11T05:16:40.298Z,64.44
2018-05-11T05:19:08.188Z,64.83
2018-05-11T05:21:36.135Z,65.51
2018-05-11T05:24:03.898Z,67.38
2018-05-11T05:26:31.664Z,67.39
2018-05-11T05:28:59.633Z,67.76
2018-05-11T05:31:27.352Z,67.80
2018-05-11T05:33:55.169Z,67.74
2018-05-11T05:36:22.927Z,67.48
2018-05-11T05:38:50.693Z,66.38
2018-05-11T05:41:18.456Z,66.04
2018-05-11T05:43:46.220Z,66.01
2018-05-11T05:46:13.882Z,66.40
2018-05-11T05:48:41.648Z,66.02
2018-05-11T05:51:09.417Z,63.67
2018-05-11T05:53:37.292Z,57.85
2018-05-11T05:56:04.996Z,56.60
2018-05-11T05:58:32.871Z,57.42
2018-05-11T06:01:00.572Z,56.68
2018-05-11T06:03:28.295Z,55.30
2018-05-11T06:05:56.102Z,56.32
2018-05-11T06:08:23.863Z,56.89
2018-05-11T06:10:51.748Z,56.46
2018-05-11T06:13:19.600Z,56.38
2018-05-11T06:15:47.570Z,56.33
2018-05-11T06:18:15.232Z,55.40
2018-05-11T06:20:43.100Z,52.51
2018-05-11T06:23:10.862Z,51.67
2018-05-11T06:25:38.671Z,50.50
2018-05-11T06:28:06.598Z,48.09
2018-05-11T06:30:34.355Z,47.63
2018-05-11T06:33:02.072Z,48.64
2018-05-11T06:35:29.786Z,48.76
2018-05-11T06:37:57.551Z,47.65
2018-05-11T06:40:25.424Z,45.97
2018-05-11T06:42:53.080Z,44.37
2018-05-11T06:45:20.742Z,43.44
2018-05-11T06:47:48.508Z,43.21
2018-05-11T06:50:16.264Z,39.07
2018-05-11T06:52:44.037Z,40.01
2018-05-11T06:55:11.792Z,41.00
2018-05-11T06:57:39.543Z,38.17
2018-05-11T07:00:07.337Z,35.16
2018-05-11T07:02:35.048Z,33.83
2018-05-11T07:05:02.856Z,34.73
2018-05-11T07:07:30.627Z,33.83
2018-05-11T07:09:58.488Z,36.09
2018-05-11T07:12:26.216Z,35.48
2018-05-11T07:14:53.913Z,35.63
2018-05-11T07:17:21.671Z,33.97
2018-05-11T07:19:49.449Z,35.15
2018-05-11T07:22:17.099Z,34.36
2018-05-11T07:24:44.870Z,31.98
2018-05-11T07:27:12.531Z,32.56
2018-05-11T07:29:40.359Z,31.31
2018-05-11T07:32:08.090Z,34.99
2018-05-11T07:34:35.919Z,34.92
2018-05-11T07:37:03.689Z,33.63
2018-05-11T07:39:31.405Z,35.04
2018-05-11T07:41:59.118Z,36.49
2018-05-11T07:44:26.985Z,34.99
2018-05-11T07:46:54.752Z,36.74
2018-05-11T07:49:22.620Z,38.27
2018-05-11T07:51:50.337Z,35.70
2018-05-11T07:54:18.146Z,34.58
2018-05-11T07:56:45.916Z,37.81
2018-05-11T07:59:13.675Z,37.85
2018-05-11T08:01:41.439Z,37.54
2018-05-11T08:04:09.307Z,40.08
2018-05-11T08:06:37.064Z,39.25
2018-05-11T08:09:04.981Z,38.58
2018-05-11T08:11:32.908Z,40.16
2018-05-11T08:14:00.564Z,40.08
2018-05-11T08:16:28.380Z,39.52
2018-05-11T08:18:56.093Z,37.99
2018-05-11T08:21:23.855Z,38.98
2018-05-11T08:23:51.581Z,36.66
2018-05-11T08:26:19.393Z,37.92
2018-05-11T08:28:47.114Z,39.65
2018-05-11T08:31:14.921Z,37.76
2018-05-11T08:33:42.686Z,38.18
2018-05-11T08:36:10.451Z,37.52
2018-05-11T08:38:38.217Z,37.82
2018-05-11T08:41:05.984Z,39.52
2018-05-11T08:43:33.849Z,39.69
2018-05-11T08:46:01.820Z,38.32
2018-05-11T08:48:29.673Z,35.84
2018-05-11T08:50:57.452Z,36.04
2018-05-11T08:53:25.219Z,35.51
2018-05-11T08:55:53.290Z,34.50
2018-05-11T08:58:21.156Z,35.31
2018-05-11T09:00:49.126Z,34.18
2018-05-11T09:03:16.850Z,36.16
2018-05-11T09:05:44.649Z,35.12
2018-05-11T09:08:12.363Z,33.10
2018-05-11T09:10:40.084Z,35.26
2018-05-11T09:13:07.842Z,36.43
2018-05-11T09:15:35.660Z,38.42
2018-05-11T09:18:03.379Z,32.93
2018-05-11T09:20:31.195Z,32.55
2018-05-11T09:22:58.898Z,31.79
2018-05-11T09:25:26.724Z,32.01
2018-05-11T09:27:54.531Z,33.85
2018-05-11T09:30:22.294Z,35.36
2018-05-11T09:32:50.005Z,35.92
2018-05-11T09:35:17.926Z,36.24
2018-05-11T09:37:45.640Z,35.23
2018-05-11T09:40:13.555Z,34.89
2018-05-11T09:42:41.322Z,34.69
2018-05-11T09:45:09.188Z,34.38
2018-05-11T09:47:37.058Z,35.96
2018-05-11T09:50:04.872Z,37.74
2018-05-11T09:52:32.687Z,37.36
2018-05-11T09:55:00.485Z,37.83
2018-05-11T09:57:28.216Z,37.12
2018-05-11T09:59:55.982Z,36.09
2018-05-11T10:02:23.746Z,33.78
2018-05-11T10:04:51.513Z,32.79
2018-05-11T10:07:19.274Z,33.63
2018-05-11T10:09:47.141Z,33.92
2018-05-11T10:12:15.972Z,32.90
2018-05-11T10:14:43.797Z,32.01
2018-05-11T10:17:11.509Z,33.73
2018-05-11T10:19:39.223Z,33.05
2018-05-11T10:22:06.873Z,32.27
2018-05-11T10:24:34.753Z,31.54
2018-05-11T10:27:02.411Z,32.30
2018-05-11T10:29:30.218Z,32.28
2018-05-11T10:31:58.509Z,34.67
2018-05-11T10:34:26.459Z,33.82
2018-05-11T10:36:54.187Z,32.68
2018-05-11T10:39:21.849Z,33.72
2018-05-11T10:41:49.615Z,33.42
2018-05-11T10:44:17.324Z,32.22
2018-05-11T10:46:45.151Z,32.34
2018-05-11T10:49:12.804Z,32.17
2018-05-11T10:51:40.670Z,31.20
2018-05-11T10:54:08.335Z,30.50
2018-05-11T10:56:36.153Z,30.94
2018-05-11T10:59:03.969Z,31.06
2018-05-11T11:01:31.784Z,31.14
2018-05-11T11:03:59.492Z,30.53
2018-05-11T11:06:27.260Z,32.71
2018-05-11T11:08:54.917Z,34.04
2018-05-11T11:11:22.690Z,33.51
2018-05-11T11:13:50.520Z,31.63
2018-05-11T11:16:18.320Z,28.97
2018-05-11T11:18:46.084Z,28.49
2018-05-11T11:21:13.948Z,30.30
2018-05-11T11:23:41.715Z,29.09
2018-05-11T11:26:09.479Z,31.48
2018-05-11T11:28:38.061Z,32.59
2018-05-11T11:31:05.930Z,31.96
2018-05-11T11:33:33.797Z,31.37
2018-05-11T11:36:01.663Z,28.68
2018-05-11T11:38:29.389Z,29.27
2018-05-11T11:40:57.293Z,29.04
2018-05-11T11:43:25.008Z,31.17
2018-05-11T11:45:52.926Z,29.01
2018-05-11T11:48:20.690Z,30.45
2018-05-11T11:50:48.455Z,32.14
2018-05-11T11:53:16.219Z,35.00
2018-05-11T11:55:43.936Z,34.78
2018-05-11T11:58:11.749Z,32.96
2018-05-11T12:00:39.570Z,31.31
2018-05-11T12:03:07.379Z,29.26
2018-05-11T12:05:35.143Z,30.11
2018-05-11T12:08:02.846Z,29.46
2018-05-11T12:10:30.672Z,28.90
2018-05-11T12:12:58.381Z,29.04
2018-05-11T12:15:26.099Z,29.47
2018-05-11T12:17:53.863Z,28.84
2018-05-11T12:20:21.628Z,29.37
2018-05-11T12:22:49.494Z,29.78
2018-05-11T12:25:17.265Z,31.30
2018-05-11T12:27:45.024Z,32.54
2018-05-11T12:30:12.784Z,29.51
2018-05-11T12:32:40.516Z,27.69
2018-05-11T12:35:08.317Z,25.06
2018-05-11T12:37:36.024Z,24.12
2018-05-11T12:40:03.792Z,26.19
2018-05-11T12:42:31.508Z,29.11
2018-05-11T12:45:00.196Z,29.72
2018-05-11T12:47:28.061Z,29.97
2018-05-11T12:49:55.827Z,29.46
2018-05-11T12:52:23.558Z,28.02
2018-05-11T12:54:51.254Z,28.05
2018-05-11T12:57:19.110Z,26.23
2018-05-11T12:59:46.885Z,29.84
2018-05-11T13:02:14.750Z,32.88
2018-05-11T13:04:42.722Z,32.96
2018-05-11T13:07:10.747Z,33.91
2018-05-11T13:09:38.663Z,33.75
2018-05-11T13:12:06.424Z,33.28
2018-05-11T13:14:34.178Z,32.51
2018-05-11T13:17:01.860Z,32.25
2018-05-11T13:19:29.511Z,31.76
2018-05-11T13:21:57.331Z,32.32
2018-05-11T13:24:25.146Z,33.45
2018-05-11T13:26:52.908Z,32.32
2018-05-11T13:29:20.632Z,31.61
2018-05-11T13:31:48.437Z,31.64
2018-05-11T13:34:16.183Z,32.64
2018-05-11T13:36:44.033Z,32.08
2018-05-11T13:39:11.823Z,32.21
2018-05-11T13:41:39.600Z,31.99
2018-05-11T13:44:07.364Z,32.27
2018-05-11T13:46:35.231Z,33.85
2018-05-11T13:49:02.942Z,33.69
2018-05-11T13:51:30.711Z,32.61
2018-05-11T13:53:58.629Z,31.76
2018-05-11T13:56:26.508Z,33.34
2018-05-11T13:58:54.359Z,33.60
2018-05-11T14:01:22.227Z,34.64
2018-05-11T14:03:49.990Z,34.34
2018-05-11T14:06:17.752Z,33.36
2018-05-11T14:08:45.475Z,34.07
2018-05-11T14:11:13.284Z,33.32
2018-05-11T14:13:40.947Z,33.92
2018-05-11T14:16:08.712Z,34.89
2018-05-11T14:18:36.475Z,34.73
2018-05-11T14:21:04.287Z,34.89
2018-05-11T14:23:32.107Z,35.50
2018-05-11T14:25:59.872Z,35.26
2018-05-11T14:28:27.634Z,35.66
2018-05-11T14:30:55.399Z,35.24
2018-05-11T14:33:23.120Z,34.75
2018-05-11T14:35:50.825Z,34.78
2018-05-11T14:38:18.529Z,34.38
2018-05-11T14:40:46.356Z,34.15
2018-05-11T14:43:14.119Z,33.25
2018-05-11T14:45:41.987Z,33.83
2018-05-11T14:48:09.697Z,33.65
2018-05-11T14:50:37.514Z,34.82
2018-05-11T14:53:05.281Z,34.37
2018-05-11T14:55:33.047Z,34.46
2018-05-11T14:58:00.914Z,35.05
2018-05-11T15:00:28.630Z,36.09
2018-05-11T15:02:56.446Z,35.33
2018-05-11T15:05:24.162Z,36.28
2018-05-11T15:07:51.969Z,36.42
2018-05-11T15:10:19.737Z,36.32
2018-05-11T15:12:47.605Z,37.53
2018-05-11T15:15:15.307Z,37.18
2018-05-11T15:17:43.128Z,37.06
2018-05-11T15:20:10.845Z,36.62
2018-05-11T15:22:38.657Z,37.07
2018-05-11T15:25:06.315Z,36.78
2018-05-11T15:27:34.042Z,36.36
2018-05-11T15:30:01.850Z,36.47
2018-05-11T15:32:29.717Z,36.20
2018-05-11T15:34:57.443Z,36.83
2018-05-11T15:37:25.144Z,36.71
2018-05-11T15:39:52.853Z,37.75
2018-05-11T15:42:20.670Z,36.73
2018-05-11T15:44:48.441Z,36.62
2018-05-11T15:47:16.405Z,37.14
2018-05-11T15:49:44.219Z,36.60
2018-05-11T15:52:11.936Z,36.51
2018-05-11T15:54:39.799Z,36.79
2018-05-11T15:57:07.674Z,37.38
2018-05-11T15:59:35.328Z,36.71
2018-05-11T16:02:03.197Z,36.46
2018-05-11T16:04:30.857Z,37.37
2018-05-11T16:06:58.626Z,37.25
2018-05-11T16:09:26.391Z,36.50
2018-05-11T16:11:54.257Z,37.09
2018-05-11T16:14:21.988Z,37.26
2018-05-11T16:16:50.503Z,37.56
2018-05-11T16:19:18.267Z,36.42
2018-05-11T16:21:46.044Z,36.48
2018-05-11T16:24:13.797Z,38.02
2018-05-11T16:26:41.551Z,37.10
2018-05-11T16:29:09.324Z,36.79
2018-05-11T16:31:37.131Z,38.87
2018-05-11T16:34:04.956Z,39.65
2018-05-11T16:36:32.719Z,39.05
2018-05-11T16:39:00.430Z,38.87
2018-05-11T16:41:28.249Z,38.98
2018-05-11T16:43:55.966Z,38.81
2018-05-11T16:46:23.667Z,37.81
2018-05-11T16:48:51.439Z,38.49
2018-05-11T16:51:19.306Z,38.68
2018-05-11T16:53:47.030Z,38.84
2018-05-11T16:56:14.822Z,37.80
2018-05-11T16:58:42.602Z,38.46
2018-05-11T17:01:10.309Z,37.38
2018-05-11T17:03:38.020Z,36.79
2018-05-11T17:06:05.893Z,37.09
2018-05-11T17:08:33.610Z,38.28
2018-05-11T17:11:01.320Z,38.99
2018-05-11T17:13:28.980Z,40.24
2018-05-11T17:15:56.744Z,38.57
2018-05-11T17:18:24.454Z,39.86
2018-05-11T17:20:52.221Z,40.71
2018-05-11T17:23:20.250Z,39.81
2018-05-11T17:25:47.912Z,40.21
2018-05-11T17:28:15.877Z,39.87
2018-05-11T17:30:43.644Z,39.86
2018-05-11T17:33:11.507Z,39.77
2018-05-11T17:35:39.276Z,40.66
2018-05-11T17:38:07.089Z,39.81
2018-05-11T17:40:34.904Z,40.51
2018-05-11T17:43:02.770Z,40.19
2018-05-11T17:45:30.490Z,40.53
2018-05-11T17:47:58.300Z,40.96
2018-05-11T17:50:26.124Z,40.04
2018-05-11T17:52:54.033Z,40.57
2018-05-11T17:55:21.692Z,40.32
2018-05-11T17:57:49.351Z,39.75
2018-05-11T18:00:17.067Z,39.22
2018-05-11T18:02:44.883Z,39.51
2018-05-11T18:05:12.600Z,39.90
2018-05-11T18:07:40.365Z,39.66
2018-05-11T18:10:08.272Z,40.10
2018-05-11T18:12:36.047Z,40.15
2018-05-11T18:15:03.707Z,41.00
2018-05-11T18:17:31.534Z,40.82
2018-05-11T18:19:59.342Z,41.05
2018-05-11T18:22:27.168Z,41.66
2018-05-11T18:24:54.972Z,42.29
2018-05-11T18:27:22.736Z,42.46
2018-05-11T18:29:50.503Z,42.40
2018-05-11T18:32:18.369Z,42.14
2018-05-11T18:34:46.080Z,41.98
2018-05-11T18:37:14.000Z,42.45
2018-05-11T18:39:41.795Z,42.92
2018-05-11T18:42:09.481Z,43.90
2018-05-11T18:44:37.296Z,44.75
2018-05-11T18:47:05.188Z,45.09
2018-05-11T18:49:32.901Z,45.03
2018-05-11T18:52:00.721Z,45.07
2018-05-11T18:54:29.022Z,45.25
2018-05-11T18:56:56.479Z,45.84
2018-05-11T18:59:24.297Z,45.88
2018-05-11T19:01:52.157Z,46.37
2018-05-11T19:04:19.920Z,46.51
2018-05-11T19:06:47.787Z,46.56
2018-05-11T19:09:15.514Z,46.45
2018-05-11T19:11:43.255Z,46.40
2018-05-11T19:14:11.081Z,46.69
2018-05-11T19:16:38.948Z,46.45
2018-05-11T19:19:06.611Z,46.99
2018-05-11T19:21:34.375Z,46.74
2018-05-11T19:24:02.139Z,46.87
2018-05-11T19:26:29.905Z,46.79
2018-05-11T19:28:57.770Z,46.76
2018-05-11T19:31:25.497Z,46.91
2018-05-11T19:33:53.406Z,47.07
2018-05-11T19:36:21.125Z,46.91
2018-05-11T19:38:49.034Z,46.42
2018-05-11T19:41:16.759Z,46.41
2018-05-11T19:43:44.563Z,46.41
2018-05-11T19:46:12.328Z,46.68
2018-05-11T19:48:40.160Z,46.19
2018-05-11T19:51:07.962Z,46.59
2018-05-11T19:53:35.623Z,46.18
2018-05-11T19:56:03.664Z,46.51
2018-05-11T19:58:31.460Z,46.29
2018-05-11T20:00:59.300Z,46.59
2018-05-11T20:03:27.065Z,46.28
2018-05-11T20:05:54.860Z,46.44
2018-05-11T20:08:22.723Z,46.64
2018-05-11T20:10:50.474Z,47.26
2018-05-11T20:13:18.254Z,47.18
2018-05-11T20:15:46.013Z,48.08
2018-05-11T20:18:13.935Z,47.84
2018-05-11T20:20:41.747Z,48.29
2018-05-11T20:23:09.617Z,47.92
2018-05-11T20:25:37.340Z,47.10
2018-05-11T20:28:05.143Z,48.24
2018-05-11T20:30:32.908Z,48.52
2018-05-11T20:33:00.778Z,48.76
2018-05-11T20:35:28.485Z,49.63
2018-05-11T20:37:56.232Z,49.60
2018-05-11T20:40:23.966Z,49.80
2018-05-11T20:42:51.935Z,49.77
2018-05-11T20:45:19.670Z,49.53
2018-05-11T20:47:47.467Z,49.30
2018-05-11T20:50:15.338Z,49.50
2018-05-11T20:52:43.048Z,50.13
2018-05-11T20:55:10.860Z,50.14
2018-05-11T20:57:38.704Z,49.99
2018-05-11T21:00:06.493Z,50.23
2018-05-11T21:02:34.152Z,50.60
2018-05-11T21:05:01.984Z,50.47
2018-05-11T21:07:29.788Z,50.52
2018-05-11T21:09:57.550Z,50.92
2018-05-11T21:12:25.381Z,51.33
2018-05-11T21:14:53.184Z,51.13
2018-05-11T21:17:20.738Z,50.93
2018-05-11T21:19:48.401Z,51.20
2018-05-11T21:22:16.149Z,51.38
2018-05-11T21:24:43.936Z,51.81
2018-05-11T21:27:11.749Z,51.43
2018-05-11T21:29:39.562Z,52.14
2018-05-11T21:32:07.223Z,52.34
2018-05-11T21:34:34.991Z,52.54
2018-05-11T21:37:02.697Z,52.37
2018-05-11T21:39:30.415Z,52.61
2018-05-11T21:41:58.131Z,52.40
2018-05-11T21:44:25.952Z,52.28
2018-05-11T21:46:53.767Z,52.69
2018-05-11T21:49:21.579Z,52.43
2018-05-11T21:51:49.301Z,52.57
2018-05-11T21:54:17.151Z,52.91
2018-05-11T21:56:44.976Z,53.09
2018-05-11T21:59:12.702Z,53.42
2018-05-11T22:01:40.494Z,53.27
2018-05-11T22:04:08.169Z,54.49
2018-05-11T22:06:36.033Z,54.88
2018-05-11T22:09:03.789Z,55.03
2018-05-11T22:11:31.536Z,56.06
2018-05-11T22:13:59.333Z,56.13
2018-05-11T22:16:27.189Z,56.56
2018-05-11T22:18:54.914Z,56.93
2018-05-11T22:21:22.721Z,56.91
2018-05-11T22:23:50.444Z,56.82
2018-05-11T22:26:18.354Z,56.86
2018-05-11T22:28:46.222Z,57.04
2018-05-11T22:31:14.045Z,57.14
2018-05-11T22:33:41.853Z,57.13
2018-05-11T22:36:09.615Z,57.22
2018-05-11T22:38:37.446Z,57.22
2018-05-11T22:41:05.114Z,56.69
2018-05-11T22:43:32.799Z,56.64
2018-05-11T22:46:00.570Z,56.67
2018-05-11T22:48:28.437Z,56.68
2018-05-11T22:50:56.093Z,56.98
2018-05-11T22:53:24.068Z,57.08
2018-05-11T22:55:51.728Z,57.38
2018-05-11T22:58:19.486Z,57.99
2018-05-11T23:00:47.196Z,58.40
2018-05-11T23:03:15.070Z,58.76
2018-05-11T23:05:42.955Z,58.68
2018-05-11T23:08:10.653Z,58.95
2018-05-11T23:10:38.394Z,58.92
2018-05-11T23:13:06.136Z,58.63
2018-05-11T23:15:33.948Z,58.79
2018-05-11T23:18:01.764Z,58.81
2018-05-11T23:20:29.579Z,58.64
2018-05-11T23:22:57.244Z,58.68
2018-05-11T23:25:24.894Z,58.86
2018-05-11T23:27:52.707Z,58.89
2018-05-11T23:30:20.432Z,59.01
2018-05-11T23:32:48.197Z,59.16
2018-05-11T23:35:16.119Z,59.13
2018-05-11T23:37:43.929Z,59.40
2018-05-11T23:40:11.739Z,59.51
2018-05-11T23:42:39.561Z,59.55
2018-05-11T23:45:07.327Z,59.63
2018-05-11T23:47:35.043Z,59.88
2018-05-11T23:50:02.855Z,59.74
2018-05-11T23:52:30.575Z,59.82
2018-05-11T23:54:58.283Z,59.76
2018-05-11T23:57:26.046Z,59.71
2018-05-11T23:59:53.811Z,59.59
